createdAt,value
2023-01-30T05:36:31.462Z,40.80
2023-01-30T05:41:33.097Z,42.90
2023-01-30T05:46:34.992Z,41.60
2023-01-30T05:51:36.697Z,37.33
2023-01-30T05:56:38.365Z,39.30
2023-01-30T06:01:40.098Z,38.13
2023-01-30T06:06:41.818Z,39.75
2023-01-30T06:11:43.486Z,38.80
2023-01-30T06:16:45.132Z,37.87
2023-01-30T06:21:46.860Z,37.30
2023-01-30T06:26:48.589Z,36.33
2023-01-30T06:31:50.390Z,37.37
2023-01-30T06:36:52.237Z,35.87
2023-01-30T06:41:54.026Z,38.00
2023-01-30T06:46:55.750Z,34.73
2023-01-30T06:51:57.706Z,35.63
2023-01-30T06:56:59.475Z,36.43
2023-01-30T07:02:01.168Z,37.47
2023-01-30T07:07:02.875Z,38.47
2023-01-30T07:12:04.677Z,35.60
2023-01-30T07:17:06.521Z,38.87
2023-01-30T07:22:08.212Z,36.67
2023-01-30T07:27:11.293Z,36.03
2023-01-30T07:32:19.911Z,36.50
2023-01-30T07:37:21.616Z,36.13
2023-01-30T07:42:23.290Z,36.40
2023-01-30T07:47:24.961Z,35.13
2023-01-30T07:52:26.702Z,35.43
2023-01-30T07:57:29.666Z,35.17
2023-01-30T08:02:31.421Z,34.03
2023-01-30T08:07:33.529Z,35.23
2023-01-30T08:12:35.378Z,33.77
2023-01-30T08:17:37.664Z,33.67
2023-01-30T08:22:39.481Z,32.77
2023-01-30T08:27:41.424Z,32.87
2023-01-30T08:32:43.257Z,33.43
2023-01-30T08:37:45.414Z,32.37
2023-01-30T08:42:47.529Z,31.40
2023-01-30T08:47:49.327Z,32.47
2023-01-30T08:52:51.220Z,31.10
2023-01-30T08:57:56.941Z,30.13
2023-01-30T09:02:58.782Z,31.10
2023-01-30T09:08:00.542Z,30.07
2023-01-30T09:13:02.277Z,32.73
2023-01-30T09:18:05.143Z,30.67
2023-01-30T09:23:06.871Z,30.80
2023-01-30T09:28:08.889Z,30.07
2023-01-30T09:33:10.582Z,30.27
2023-01-30T09:38:12.189Z,30.17
2023-01-30T09:43:39.844Z,29.00
2023-01-30T09:49:03.410Z,29.43
2023-01-30T09:54:15.392Z,27.60
2023-01-30T09:59:25.847Z,29.47
2023-01-30T10:04:39.045Z,30.33
2023-01-30T10:09:47.663Z,28.73
2023-01-30T10:15:48.229Z,28.77
2023-01-30T10:21:02.298Z,29.93
2023-01-30T10:26:14.696Z,28.67
2023-01-30T10:31:23.215Z,28.33
2023-01-30T10:37:03.452Z,29.37
2023-01-30T10:42:11.918Z,28.93
2023-01-30T10:47:22.077Z,28.60
2023-01-30T10:52:41.010Z,28.60
2023-01-30T10:57:57.786Z,28.93
2023-01-30T11:03:08.634Z,28.30
2023-01-30T11:08:28.330Z,27.47
2023-01-30T11:13:34.104Z,27.10
2023-01-30T11:19:18.922Z,27.00
2023-01-30T11:24:17.879Z,27.37
2023-01-30T11:29:30.236Z,27.53
2023-01-30T11:34:32.263Z,27.67
2023-01-30T11:39:34.915Z,27.10
2023-01-30T11:44:40.322Z,27.20
2023-01-30T11:50:01.144Z,26.37
2023-01-30T11:55:12.943Z,25.93
2023-01-30T12:00:24.382Z,25.33
2023-01-30T12:05:42.439Z,25.97
2023-01-30T12:10:45.586Z,26.33
2023-01-30T12:15:52.898Z,26.63
2023-01-30T12:21:00.467Z,27.23
2023-01-30T12:26:15.321Z,27.57
2023-01-30T12:31:26.141Z,26.80
2023-01-30T12:36:33.815Z,25.73
2023-01-30T12:41:52.281Z,26.87
2023-01-30T12:47:06.083Z,28.17
2023-01-30T12:52:46.963Z,26.43
2023-01-30T12:58:00.714Z,27.47
2023-01-30T13:03:27.134Z,28.10
2023-01-30T13:08:53.931Z,28.17
2023-01-30T13:14:09.697Z,27.43
2023-01-30T13:20:01.490Z,26.93
2023-01-30T13:25:21.302Z,26.70
2023-01-30T13:30:25.575Z,27.63
2023-01-30T13:35:34.921Z,28.03
2023-01-30T13:40:40.679Z,29.03
2023-01-30T13:45:46.315Z,29.27
2023-01-30T13:51:15.718Z,29.33
2023-01-30T13:56:40.403Z,30.30
2023-01-30T14:02:00.295Z,29.43
2023-01-30T14:07:40.687Z,29.87
2023-01-30T14:12:54.281Z,28.53
2023-01-30T14:18:05.611Z,29.83
2023-01-30T14:23:22.775Z,29.20
2023-01-30T14:28:24.637Z,28.93
2023-01-30T14:33:26.214Z,30.03
2023-01-30T14:38:35.280Z,29.07
2023-01-30T14:43:36.915Z,27.67
2023-01-30T14:49:04.421Z,28.43
2023-01-30T14:54:12.812Z,28.43
2023-01-30T14:59:17.567Z,27.87
2023-01-30T15:04:21.169Z,28.30
2023-01-30T15:09:26.994Z,29.27
2023-01-30T15:14:52.412Z,29.60
2023-01-30T15:20:21.960Z,29.13
2023-01-30T15:25:37.305Z,28.07
2023-01-30T15:30:57.349Z,27.53
2023-01-30T15:36:17.356Z,27.17
2023-01-30T15:41:19.068Z,28.60
2023-01-30T15:46:53.173Z,26.87
2023-01-30T15:51:59.676Z,28.00
2023-01-30T15:57:01.574Z,27.27
2023-01-30T16:02:08.155Z,27.43
2023-01-30T16:07:22.830Z,27.07
2023-01-30T16:12:29.677Z,27.90
2023-01-30T16:17:32.010Z,27.30
2023-01-30T16:22:35.102Z,27.60
2023-01-30T16:27:41.260Z,29.80
2023-01-30T16:32:43.097Z,29.17
2023-01-30T16:37:44.792Z,26.80
2023-01-30T16:43:01.029Z,29.30
2023-01-30T16:48:30.928Z,28.00
2023-01-30T16:53:33.771Z,26.10
2023-01-30T16:58:36.992Z,26.97
2023-01-30T17:03:42.771Z,27.53
2023-01-30T17:08:49.414Z,29.30
2023-01-30T17:14:14.690Z,27.13
2023-01-30T17:19:16.537Z,26.13
2023-01-30T17:24:21.500Z,25.47
2023-01-30T17:29:41.413Z,26.30
2023-01-30T17:34:44.046Z,25.37
2023-01-30T17:39:46.025Z,25.13
2023-01-30T17:44:47.886Z,24.77
2023-01-30T17:49:49.572Z,25.00
2023-01-30T17:54:51.257Z,25.93
2023-01-30T17:59:54.313Z,26.37
2023-01-30T18:04:56.083Z,26.37
2023-01-30T18:10:00.544Z,25.73
2023-01-30T18:15:02.287Z,25.57
2023-01-30T18:20:04.380Z,25.47
2023-01-30T18:25:06.707Z,25.20
2023-01-30T18:30:09.106Z,25.10
2023-01-30T18:35:10.870Z,25.50
2023-01-30T18:40:15.292Z,26.17
2023-01-30T18:45:17.106Z,26.40
2023-01-30T18:50:19.423Z,26.93
2023-01-30T18:55:23.360Z,25.80
2023-01-30T19:00:25.435Z,25.60
2023-01-30T19:05:27.076Z,26.03
2023-01-30T19:10:30.750Z,25.83
2023-01-30T19:15:35.211Z,27.47
2023-01-30T19:20:36.885Z,27.27
2023-01-30T19:25:38.603Z,26.83
2023-01-30T19:30:40.416Z,27.67
2023-01-30T19:35:43.761Z,27.57
2023-01-30T19:40:46.730Z,26.87
2023-01-30T19:45:58.179Z,26.23
2023-01-30T19:51:02.786Z,28.00
2023-01-30T19:56:05.225Z,27.80
2023-01-30T20:01:12.225Z,28.57
2023-01-30T20:06:16.868Z,27.80
2023-01-30T20:11:21.318Z,29.93
2023-01-30T20:16:25.765Z,27.27
2023-01-30T20:21:29.197Z,28.13
2023-01-30T20:26:35.399Z,28.00
2023-01-30T20:31:39.214Z,26.60
2023-01-30T20:36:41.495Z,27.47
2023-01-30T20:41:43.278Z,28.30
2023-01-30T20:46:46.384Z,27.93
2023-01-30T20:51:51.409Z,27.07
2023-01-30T20:56:53.957Z,26.93
2023-01-30T21:01:55.784Z,26.87
2023-01-30T21:06:57.606Z,27.07
2023-01-30T21:11:59.283Z,25.10
2023-01-30T21:17:01.583Z,26.50
2023-01-30T21:22:09.362Z,27.87
2023-01-30T21:27:11.110Z,25.70
2023-01-30T21:32:12.846Z,25.87
2023-01-30T21:37:33.018Z,26.67
